createdAt,value
2018-01-05T00:00:02.261Z,9.81
2018-01-05T00:01:01.891Z,9.75
2018-01-05T00:02:01.288Z,9.75
2018-01-05T00:03:01.574Z,9.75
2018-01-05T00:04:01.845Z,9.69
2018-01-05T00:05:01.238Z,9.69
2018-01-05T00:06:01.827Z,9.63
2018-01-05T00:07:01.244Z,9.69
2018-01-05T00:08:01.629Z,9.69
2018-01-05T00:09:01.939Z,9.69
2018-01-05T00:10:01.474Z,9.69
2018-01-05T00:11:00.932Z,9.69
2018-01-05T00:12:01.289Z,9.69
2018-01-05T00:13:01.801Z,9.63
2018-01-05T00:14:01.289Z,9.63
2018-01-05T00:15:01.441Z,9.63
2018-01-05T00:16:01.820Z,9.63
2018-01-05T00:19:06.837Z,9.56
2018-01-05T00:20:01.174Z,9.56
2018-01-05T00:21:01.666Z,9.63
2018-01-05T00:22:01.261Z,9.56
2018-01-05T00:23:01.400Z,9.63
2018-01-05T00:24:01.652Z,9.56
2018-01-05T00:25:01.938Z,9.56
2018-01-05T00:26:01.124Z,9.56
2018-01-05T00:27:01.349Z,9.56
2018-01-05T00:28:01.557Z,9.56
2018-01-05T00:29:01.737Z,9.5
2018-01-05T00:30:01.168Z,9.5
2018-01-05T00:31:01.334Z,9.5
2018-01-05T00:32:01.681Z,9.5
2018-01-05T00:33:01.220Z,9.5
2018-01-05T00:34:01.573Z,9.38
2018-01-05T00:35:01.711Z,9.44
2018-01-05T00:36:01.678Z,9.38
2018-01-05T00:37:02.007Z,9.38
2018-01-05T00:38:01.362Z,9.38
2018-01-05T00:39:01.643Z,9.38
2018-01-05T00:40:01.992Z,9.38
2018-01-05T00:41:01.283Z,9.31
2018-01-05T00:42:02.108Z,9.31
2018-01-05T00:43:01.700Z,9.31
2018-01-05T00:44:02.286Z,9.25
2018-01-05T00:45:01.733Z,9.31
2018-01-05T00:46:01.269Z,9.31
2018-01-05T00:47:01.637Z,9.31
2018-01-05T00:48:02.036Z,9.31
2018-01-05T00:49:01.316Z,9.31
2018-01-05T00:50:01.904Z,9.31
2018-01-05T00:51:01.417Z,9.31
2018-01-05T00:52:01.620Z,9.31
2018-01-05T00:53:02.060Z,9.31
2018-01-05T00:54:01.624Z,9.25
2018-01-05T00:55:02.131Z,9.25
2018-01-05T00:56:01.388Z,9.25
2018-01-05T00:57:01.620Z,9.25
2018-01-05T00:58:01.828Z,9.25
2018-01-05T00:59:01.075Z,9.25
2018-01-05T01:00:01.711Z,9.31
2018-01-05T01:01:02.360Z,9.25
2018-01-05T01:02:01.812Z,9.25
2018-01-05T01:03:02.204Z,9.25
2018-01-05T01:04:01.553Z,9.19
2018-01-05T01:05:01.979Z,9.25
2018-01-05T01:06:02.249Z,9.25
2018-01-05T01:07:01.671Z,9.25
2018-01-05T01:08:01.983Z,9.19
2018-01-05T01:09:02.241Z,9.25
2018-01-05T01:10:01.386Z,9.25
2018-01-05T01:11:02.291Z,9.25
2018-01-05T01:12:01.567Z,9.25
2018-01-05T01:13:01.947Z,9.25
2018-01-05T01:14:03.219Z,9.25
2018-01-05T01:15:01.627Z,9.31
2018-01-05T01:16:01.957Z,9.31
2018-01-05T01:17:02.284Z,9.31
2018-01-05T01:18:01.615Z,9.31
2018-01-05T01:19:02.045Z,9.31
2018-01-05T01:20:01.363Z,9.38
2018-01-05T01:21:01.619Z,9.38
2018-01-05T01:22:01.817Z,9.38
2018-01-05T01:23:01.980Z,9.44
2018-01-05T01:24:02.278Z,9.38
2018-01-05T01:25:01.697Z,9.38
2018-01-05T01:26:02.321Z,9.38
2018-01-05T01:27:01.428Z,9.38
2018-01-05T01:28:01.550Z,9.38
2018-01-05T01:29:01.801Z,9.38
2018-01-05T01:30:02.347Z,9.44
2018-01-05T01:31:01.741Z,9.56
2018-01-05T01:32:02.134Z,9.63
2018-01-05T01:33:01.474Z,9.56
2018-01-05T01:34:01.838Z,9.5
2018-01-05T01:35:02.119Z,9.56
2018-01-05T01:36:01.497Z,9.5
2018-01-05T01:37:01.732Z,9.5
2018-01-05T01:38:01.901Z,9.5
2018-01-05T01:39:02.095Z,9.5
2018-01-05T01:41:25.526Z,9.44
2018-01-05T01:42:01.943Z,9.44
2018-01-05T01:43:01.335Z,9.44
2018-01-05T01:44:01.692Z,9.44
2018-01-05T01:45:01.862Z,9.38
2018-01-05T01:46:02.035Z,9.44
2018-01-05T01:47:01.580Z,9.38
2018-01-05T01:48:01.963Z,9.44
2018-01-05T01:49:01.431Z,9.38
2018-01-05T01:50:01.732Z,9.38
2018-01-05T01:51:01.877Z,9.38
2018-01-05T01:52:02.235Z,9.38
2018-01-05T01:53:01.392Z,9.38
2018-01-05T01:54:01.643Z,9.38
2018-01-05T01:55:02.051Z,9.38
2018-01-05T01:56:01.291Z,9.38
2018-01-05T01:57:01.778Z,9.38
2018-01-05T01:58:01.416Z,9.38
2018-01-05T01:59:01.708Z,9.38
2018-01-05T02:00:01.877Z,9.38
2018-01-05T02:01:02.437Z,9.31
2018-01-05T02:02:01.915Z,9.38
2018-01-05T02:03:02.409Z,9.38
2018-01-05T02:04:01.785Z,9.31
2018-01-05T02:05:02.079Z,9.38
2018-01-05T02:06:01.273Z,9.31
2018-01-05T02:07:01.436Z,9.31
2018-01-05T02:08:01.636Z,9.31
2018-01-05T02:09:02.203Z,9.38
2018-01-05T02:10:01.747Z,9.31
2018-01-05T02:11:01.894Z,9.38
2018-01-05T02:12:02.045Z,9.38
2018-01-05T02:13:01.351Z,9.31
2018-01-05T02:14:01.767Z,9.38
2018-01-05T02:15:02.203Z,9.31
2018-01-05T02:16:01.606Z,9.31
2018-01-05T02:17:02.021Z,9.31
2018-01-05T02:18:01.375Z,9.31
2018-01-05T02:19:01.587Z,9.31
2018-01-05T02:20:02.145Z,9.31
2018-01-05T02:21:01.337Z,9.31
2018-01-05T02:22:01.660Z,9.31
2018-01-05T02:23:01.844Z,9.31
2018-01-05T02:24:02.000Z,9.25
2018-01-05T02:25:02.124Z,9.31
2018-01-05T02:26:01.490Z,9.25
2018-01-05T02:27:01.960Z,9.25
2018-01-05T02:28:02.267Z,9.31
2018-01-05T02:29:01.595Z,9.25
2018-01-05T02:30:02.000Z,9.25
2018-01-05T02:31:01.203Z,9.25
2018-01-05T02:32:01.488Z,9.25
2018-01-05T02:33:01.943Z,9.25
2018-01-05T02:34:02.388Z,9.25
2018-01-05T02:35:03.554Z,9.25
2018-01-05T02:36:01.864Z,9.25
2018-01-05T02:37:02.250Z,9.25
2018-01-05T02:38:01.769Z,9.25
2018-01-05T02:39:02.096Z,9.25
2018-01-05T02:40:02.657Z,9.19
2018-01-05T02:41:02.081Z,9.19
2018-01-05T02:42:02.487Z,9.19
2018-01-05T02:43:01.911Z,9.19
2018-01-05T02:44:02.133Z,9.19
2018-01-05T02:45:02.609Z,9.13
2018-01-05T02:46:01.853Z,9.13
2018-01-05T02:47:02.234Z,9.13
2018-01-05T02:49:25.308Z,9.13
2018-01-05T02:50:01.870Z,9.13
2018-01-05T02:51:02.142Z,9.13
2018-01-05T02:52:02.306Z,9.06
2018-01-05T02:53:01.560Z,9.13
2018-01-05T02:54:01.728Z,9.13
2018-01-05T02:55:01.963Z,9.13
2018-01-05T02:56:02.202Z,9.06
2018-01-05T02:57:01.350Z,9.06
2018-01-05T02:58:01.404Z,9.06
2018-01-05T02:59:01.690Z,9.06
2018-01-05T03:00:02.076Z,9.06
2018-01-05T03:01:02.503Z,9.06
2018-01-05T03:02:02.303Z,9.06
2018-01-05T03:03:01.766Z,9
2018-01-05T03:04:02.060Z,9
2018-01-05T03:05:01.337Z,9
2018-01-05T03:06:01.685Z,9
2018-01-05T03:07:02.126Z,9
2018-01-05T03:08:01.237Z,9
2018-01-05T03:09:01.486Z,9
2018-01-05T03:10:01.887Z,9
2018-01-05T03:11:01.062Z,9.06
2018-01-05T03:12:02.771Z,9.06
2018-01-05T03:13:01.280Z,9
2018-01-05T03:14:01.595Z,9.06
2018-01-05T03:15:01.665Z,9.06
2018-01-05T03:16:02.059Z,9.06
2018-01-05T03:17:01.267Z,9
2018-01-05T03:18:01.685Z,9.06
2018-01-05T03:19:03.516Z,9
2018-01-05T03:20:02.035Z,9
2018-01-05T03:21:01.439Z,9.06
2018-01-05T03:22:01.812Z,9.06
2018-01-05T03:23:02.172Z,9.06
2018-01-05T03:24:01.856Z,9.06
2018-01-05T03:25:01.080Z,9.06
2018-01-05T03:26:01.410Z,9.06
2018-01-05T03:27:01.727Z,9.06
2018-01-05T03:28:02.035Z,9.06
2018-01-05T03:29:01.328Z,9.13
2018-01-05T03:30:01.970Z,9.13
2018-01-05T03:31:01.099Z,9.13
2018-01-05T03:32:01.425Z,9.13
2018-01-05T03:33:01.572Z,9.13
2018-01-05T03:34:00.956Z,9.13
2018-01-05T03:35:01.379Z,9.13
2018-01-05T03:36:01.564Z,9.13
2018-01-05T03:37:00.782Z,9.19
2018-01-05T03:38:00.964Z,9.19
2018-01-05T03:39:01.317Z,9.19
2018-01-05T03:40:01.678Z,9.13
2018-01-05T03:41:00.905Z,9.19
2018-01-05T03:42:01.374Z,9.19
2018-01-05T03:43:01.773Z,9.19
2018-01-05T03:44:01.054Z,9.19
2018-01-05T03:45:01.389Z,9.19
2018-01-05T03:46:00.879Z,9.19
2018-01-05T03:47:01.247Z,9.19
2018-01-05T03:48:01.677Z,9.19
2018-01-05T03:49:00.850Z,9.13
2018-01-05T03:50:01.384Z,9.19
2018-01-05T03:51:01.811Z,9.13
2018-01-05T03:52:01.181Z,9.19
2018-01-05T03:53:01.565Z,9.19
2018-01-05T03:54:00.920Z,9.19
2018-01-05T03:55:00.996Z,9.25
2018-01-05T03:56:01.224Z,9.25
2018-01-05T03:57:01.685Z,9.25
2018-01-05T03:58:00.606Z,9.25
2018-01-05T03:59:00.853Z,9.31
2018-01-05T04:00:01.226Z,9.25
2018-01-05T04:01:01.425Z,9.31
2018-01-05T04:02:01.668Z,9.25
2018-01-05T04:03:00.971Z,9.25
2018-01-05T04:04:01.448Z,9.31
2018-01-05T04:05:01.943Z,9.25
2018-01-05T04:06:02.690Z,9.25
2018-01-05T04:07:02.152Z,9.25
2018-01-05T04:08:01.349Z,9.25
2018-01-05T04:09:01.556Z,9.25
2018-01-05T04:10:01.874Z,9.25
2018-01-05T04:11:02.164Z,9.25
2018-01-05T04:12:01.517Z,9.25
2018-01-05T04:13:01.680Z,9.31
2018-01-05T04:14:01.792Z,9.25
2018-01-05T04:15:01.912Z,9.25
2018-01-05T04:16:02.128Z,9.31
2018-01-05T04:17:01.284Z,9.31
2018-01-05T04:18:01.690Z,9.31
2018-01-05T04:19:01.968Z,9.31
2018-01-05T04:20:02.702Z,9.31
2018-01-05T04:21:01.835Z,9.31
2018-01-05T04:22:02.037Z,9.31
2018-01-05T04:23:02.412Z,9.31
2018-01-05T04:24:01.769Z,9.25
2018-01-05T04:25:01.993Z,9.31
2018-01-05T04:26:02.311Z,9.31
2018-01-05T04:27:01.468Z,9.31
2018-01-05T04:28:01.783Z,9.31
2018-01-05T04:29:02.773Z,9.31
2018-01-05T04:30:02.002Z,9.31
2018-01-05T04:31:02.263Z,9.25
2018-01-05T04:32:01.532Z,9.31
2018-01-05T04:33:01.854Z,9.31
2018-01-05T04:34:02.266Z,9.31
2018-01-05T04:35:01.615Z,9.25
2018-01-05T04:36:01.807Z,9.31
2018-01-05T04:37:02.072Z,9.25
2018-01-05T04:38:01.442Z,9.25
2018-01-05T04:39:01.849Z,9.25
2018-01-05T04:40:01.328Z,9.25
2018-01-05T04:41:01.646Z,9.25
2018-01-05T04:42:01.879Z,9.25
2018-01-05T04:43:02.020Z,9.25
2018-01-05T04:44:01.150Z,9.25
2018-01-05T04:45:01.448Z,9.25
2018-01-05T04:46:01.894Z,9.25
2018-01-05T04:47:01.281Z,9.25
2018-01-05T04:48:01.614Z,9.25
2018-01-05T04:49:02.127Z,9.19
2018-01-05T04:50:01.567Z,9.25
2018-01-05T04:51:01.069Z,9.19
2018-01-05T04:52:01.252Z,9.25
2018-01-05T04:53:01.826Z,9.19
2018-01-05T04:54:02.072Z,9.19
2018-01-05T04:55:01.414Z,9.25
2018-01-05T04:56:02.853Z,9.25
2018-01-05T04:57:03.357Z,9.25
2018-01-05T04:58:01.817Z,9.19
2018-01-05T04:59:01.995Z,9.25
2018-01-05T05:00:01.246Z,9.25
2018-01-05T05:01:01.488Z,9.25
2018-01-05T05:02:01.815Z,9.25
2018-01-05T05:03:02.060Z,9.19
2018-01-05T05:04:01.301Z,9.25
2018-01-05T05:05:01.795Z,9.19
2018-01-05T05:06:01.105Z,9.25
2018-01-05T05:07:01.517Z,9.25
2018-01-05T05:08:00.773Z,9.25
2018-01-05T05:09:00.880Z,9.25
2018-01-05T05:10:00.935Z,9.25
2018-01-05T05:11:00.839Z,9.25
2018-01-05T05:12:00.778Z,9.25
2018-01-05T05:13:01.213Z,9.25
2018-01-05T05:14:01.415Z,9.25
2018-01-05T05:15:02.659Z,9.31
2018-01-05T05:16:00.899Z,9.25
2018-01-05T05:17:00.980Z,9.31
2018-01-05T05:18:01.361Z,9.31
2018-01-05T05:19:00.620Z,9.25
2018-01-05T05:20:00.864Z,9.31
2018-01-05T05:21:01.151Z,9.31
2018-01-05T05:22:01.515Z,9.31
2018-01-05T05:23:01.060Z,9.31
2018-01-05T05:24:01.258Z,9.31
2018-01-05T05:25:01.370Z,9.31
2018-01-05T05:26:00.544Z,9.31
2018-01-05T05:27:01.028Z,9.31
2018-01-05T05:28:01.438Z,9.31
2018-01-05T05:29:00.821Z,9.31
2018-01-05T05:30:01.176Z,9.31
2018-01-05T05:31:01.460Z,9.38
2018-01-05T05:32:00.760Z,9.31
2018-01-05T05:33:01.055Z,9.38
2018-01-05T05:34:01.625Z,9.38
2018-01-05T05:35:00.793Z,9.31
2018-01-05T05:36:01.048Z,9.38
2018-01-05T05:37:01.118Z,9.31
2018-01-05T05:38:01.190Z,9.38
2018-01-05T05:39:01.339Z,9.38
2018-01-05T05:40:01.640Z,9.31
2018-01-05T05:41:02.063Z,9.31
2018-01-05T05:42:01.310Z,9.31
2018-01-05T05:43:01.609Z,9.31
2018-01-05T05:44:01.859Z,9.31
2018-01-05T05:45:01.082Z,9.31
2018-01-05T05:46:01.149Z,9.31
2018-01-05T05:47:01.292Z,9.31
2018-01-05T05:48:01.442Z,9.31
2018-01-05T05:49:01.795Z,9.31
2018-01-05T05:50:02.336Z,9.31
2018-01-05T05:51:01.727Z,9.25
2018-01-05T05:52:01.878Z,9.31
2018-01-05T05:53:00.990Z,9.25
2018-01-05T05:54:01.148Z,9.31
2018-01-05T05:55:01.254Z,9.31
2018-01-05T05:56:01.838Z,9.31
2018-01-05T05:57:01.024Z,9.31
2018-01-05T05:58:01.204Z,9.25
2018-01-05T05:59:01.680Z,9.31
2018-01-05T06:00:01.894Z,9.31
2018-01-05T06:01:02.073Z,9.25
2018-01-05T06:02:01.449Z,9.25
2018-01-05T06:03:01.850Z,9.25
2018-01-05T06:04:01.042Z,9.25
2018-01-05T06:05:01.238Z,9.25
2018-01-05T06:06:01.539Z,9.31
2018-01-05T06:07:01.852Z,9.31
2018-01-05T06:08:02.166Z,9.25
2018-01-05T06:09:02.584Z,9.25
2018-01-05T06:10:01.887Z,9.25
2018-01-05T06:11:01.981Z,9.19
2018-01-05T06:12:02.247Z,9.19
2018-01-05T06:13:02.495Z,9.25
2018-01-05T06:14:01.837Z,9.19
2018-01-05T06:15:02.051Z,9.25
2018-01-05T06:16:02.170Z,9.25
2018-01-05T06:17:02.488Z,9.25
2018-01-05T06:18:01.980Z,9.25
2018-01-05T06:19:02.397Z,9.25
2018-01-05T06:20:01.712Z,9.25
2018-01-05T06:21:01.952Z,9.25
2018-01-05T06:22:02.226Z,9.25
2018-01-05T06:23:02.423Z,9.25
2018-01-05T06:24:01.599Z,9.31
2018-01-05T06:25:01.799Z,9.31
2018-01-05T06:26:02.153Z,9.31
2018-01-05T06:27:02.413Z,9.25
2018-01-05T06:28:01.868Z,9.31
2018-01-05T06:29:02.625Z,9.31
2018-01-05T06:30:02.020Z,9.31
2018-01-05T06:32:03.952Z,9.31
2018-01-05T06:33:02.417Z,9.31
2018-01-05T06:34:01.797Z,9.25
2018-01-05T06:35:02.188Z,9.25
2018-01-05T06:36:02.563Z,9.31
2018-01-05T06:37:01.483Z,9.25
2018-01-05T06:38:00.788Z,9.31
2018-01-05T06:39:01.019Z,9.25
2018-01-05T06:40:01.476Z,9.25
2018-01-05T06:41:00.631Z,9.25
2018-01-05T06:42:00.750Z,9.25
2018-01-05T06:43:01.040Z,9.25
2018-01-05T06:44:01.288Z,9.25
2018-01-05T06:45:01.654Z,9.25
2018-01-05T06:46:00.932Z,9.25
2018-01-05T06:47:01.098Z,9.25
2018-01-05T06:48:01.381Z,9.19
2018-01-05T06:49:00.597Z,9.25
2018-01-05T06:50:00.981Z,9.25
2018-01-05T06:51:01.544Z,9.25
2018-01-05T06:52:00.885Z,9.25
2018-01-05T06:53:01.249Z,9.25
2018-01-05T06:54:01.540Z,9.25
2018-01-05T06:55:01.005Z,9.25
2018-01-05T06:56:01.248Z,9.25
2018-01-05T06:57:01.502Z,9.25
2018-01-05T06:58:00.838Z,9.25
2018-01-05T06:59:01.189Z,9.31
2018-01-05T07:00:01.659Z,9.25
2018-01-05T07:01:01.284Z,9.31
2018-01-05T07:02:02.534Z,9.31
2018-01-05T07:03:00.850Z,9.31
2018-01-05T07:04:01.327Z,9.31
2018-01-05T07:05:02.668Z,9.31
2018-01-05T07:06:01.109Z,9.31
2018-01-05T07:07:01.381Z,9.31
2018-01-05T07:08:01.952Z,9.31
2018-01-05T07:09:02.847Z,9.31
2018-01-05T07:10:02.280Z,9.31
2018-01-05T07:11:01.814Z,9.31
2018-01-05T07:12:03.116Z,9.31
2018-01-05T07:13:01.414Z,9.31
2018-01-05T07:14:01.675Z,9.31
2018-01-05T07:15:02.060Z,9.31
2018-01-05T07:16:02.444Z,9.31
2018-01-05T07:17:01.928Z,9.31
2018-01-05T07:18:02.420Z,9.31
2018-01-05T07:19:01.941Z,9.31
2018-01-05T07:20:02.369Z,9.31
2018-01-05T07:21:01.778Z,9.31
2018-01-05T07:22:02.779Z,9.38
2018-01-05T07:23:02.488Z,9.31
2018-01-05T07:24:01.875Z,9.31
2018-01-05T07:25:02.366Z,9.31
2018-01-05T07:26:01.635Z,9.31
2018-01-05T07:27:02.096Z,9.31
2018-01-05T07:28:02.370Z,9.31
2018-01-05T07:29:01.778Z,9.38
2018-01-05T07:30:02.250Z,9.31
2018-01-05T07:31:01.437Z,9.31
2018-01-05T07:32:01.824Z,9.31
2018-01-05T07:33:03.661Z,9.38
2018-01-05T07:34:02.310Z,9.38
2018-01-05T07:35:01.669Z,9.38
2018-01-05T07:36:04.284Z,9.44
2018-01-05T07:37:01.541Z,9.44
2018-01-05T07:38:01.827Z,9.44
2018-01-05T07:39:02.198Z,9.44
2018-01-05T07:40:02.822Z,9.44
2018-01-05T07:41:02.228Z,9.38
2018-01-05T07:42:02.318Z,9.44
2018-01-05T07:43:02.520Z,9.44
2018-01-05T07:44:01.708Z,9.44
2018-01-05T07:45:02.332Z,9.44
2018-01-05T07:46:01.849Z,9.44
2018-01-05T07:47:02.672Z,9.5
2018-01-05T07:48:01.882Z,9.5
2018-01-05T07:49:01.903Z,9.5
2018-01-05T07:50:02.175Z,9.44
2018-01-05T07:51:02.591Z,9.5
2018-01-05T07:52:01.983Z,9.5
2018-01-05T07:53:02.303Z,9.5
2018-01-05T07:59:06.095Z,9.56
2018-01-05T08:00:02.615Z,9.63
2018-01-05T08:01:01.829Z,9.63
2018-01-05T08:02:01.983Z,9.63
2018-01-05T08:03:02.323Z,9.63
2018-01-05T08:04:01.997Z,9.63
2018-01-05T08:05:02.460Z,9.69
2018-01-05T08:06:01.831Z,9.69
2018-01-05T08:07:02.200Z,9.69
2018-01-05T08:08:01.868Z,9.75
2018-01-05T08:09:01.407Z,9.69
2018-01-05T08:10:02.018Z,9.75
2018-01-05T08:11:01.573Z,9.75
2018-01-05T08:12:01.771Z,9.75
2018-01-05T08:13:02.209Z,9.75
2018-01-05T08:14:01.592Z,9.75
2018-01-05T08:15:01.858Z,9.81
2018-01-05T08:16:01.288Z,9.81
2018-01-05T08:17:01.821Z,9.75
2018-01-05T08:18:02.718Z,9.75
2018-01-05T08:19:01.859Z,9.81
2018-01-05T08:20:02.056Z,9.81
2018-01-05T08:21:01.365Z,9.88
2018-01-05T08:22:01.795Z,9.88
2018-01-05T08:23:02.155Z,9.88
2018-01-05T08:24:01.527Z,9.88
2018-01-05T08:25:01.945Z,9.88
2018-01-05T08:26:02.099Z,9.88
2018-01-05T08:27:01.713Z,9.81
2018-01-05T08:28:01.789Z,9.88
2018-01-05T08:29:02.098Z,9.88
2018-01-05T08:30:01.602Z,9.88
2018-01-05T08:31:01.998Z,9.88
2018-01-05T08:32:01.305Z,9.88
2018-01-05T08:33:01.462Z,9.94
2018-01-05T08:34:01.948Z,9.94
2018-01-05T08:35:01.386Z,9.94
2018-01-05T08:36:01.682Z,9.94
2018-01-05T08:37:02.050Z,9.94
2018-01-05T08:38:01.772Z,9.94
2018-01-05T08:39:02.029Z,9.94
2018-01-05T08:40:02.405Z,10
2018-01-05T08:41:01.869Z,9.94
2018-01-05T08:42:02.693Z,10
2018-01-05T08:43:02.222Z,10
2018-01-05T08:44:02.401Z,10
2018-01-05T08:45:01.600Z,10
2018-01-05T08:46:01.745Z,10
2018-01-05T08:47:02.020Z,10.06
2018-01-05T08:48:02.409Z,10
2018-01-05T08:49:01.814Z,10
2018-01-05T08:50:02.210Z,10
2018-01-05T08:51:02.502Z,10.06
2018-01-05T08:52:01.851Z,10.06
2018-01-05T08:53:02.295Z,10.06
2018-01-05T08:54:01.656Z,10.13
2018-01-05T08:55:01.842Z,10.06
2018-01-05T08:56:02.097Z,10.13
2018-01-05T08:57:02.492Z,10.13
2018-01-05T08:58:01.949Z,10.13
2018-01-05T08:59:02.308Z,10.06
2018-01-05T09:00:01.717Z,10.13
2018-01-05T09:01:02.051Z,10.13
2018-01-05T09:02:02.399Z,10.13
2018-01-05T09:03:01.633Z,10.13
2018-01-05T09:04:02.173Z,10.06
2018-01-05T09:05:02.748Z,10.13
2018-01-05T09:06:02.109Z,10.13
2018-01-05T09:07:02.750Z,10.13
2018-01-05T09:08:02.287Z,10.13
2018-01-05T09:09:01.691Z,10.13
2018-01-05T09:10:02.256Z,10.13
2018-01-05T09:11:01.880Z,10.13
2018-01-05T09:12:01.211Z,10.13
2018-01-05T09:13:01.297Z,10.19
2018-01-05T09:14:01.496Z,10.19
2018-01-05T09:15:02.056Z,10.25
2018-01-05T09:16:01.372Z,10.25
2018-01-05T09:17:01.729Z,10.31
2018-01-05T09:18:02.226Z,10.25
2018-01-05T09:19:01.355Z,10.31
2018-01-05T09:20:01.729Z,10.31
2018-01-05T09:21:02.260Z,10.31
2018-01-05T09:22:01.767Z,10.31
2018-01-05T09:23:02.122Z,10.31
2018-01-05T09:24:01.310Z,10.31
2018-01-05T09:25:01.561Z,10.38
2018-01-05T09:26:01.779Z,10.38
2018-01-05T09:27:02.237Z,10.38
2018-01-05T09:28:01.660Z,10.38
2018-01-05T09:29:01.996Z,10.44
2018-01-05T09:30:01.385Z,10.44
2018-01-05T09:31:01.885Z,10.44
2018-01-05T09:32:01.352Z,10.38
2018-01-05T09:33:01.908Z,10.5
2018-01-05T09:34:02.210Z,10.5
2018-01-05T09:35:01.595Z,10.5
2018-01-05T09:36:01.748Z,10.5
2018-01-05T09:37:02.005Z,10.5
2018-01-05T09:38:01.467Z,10.5
2018-01-05T09:39:02.164Z,10.56
2018-01-05T09:40:01.539Z,10.56
2018-01-05T09:41:01.707Z,10.56
2018-01-05T09:42:00.970Z,10.56
2018-01-05T09:43:01.402Z,10.63
2018-01-05T09:44:00.790Z,10.63
2018-01-05T09:45:01.259Z,10.69
2018-01-05T09:46:01.785Z,10.69
2018-01-05T09:47:01.016Z,10.69
2018-01-05T09:48:01.394Z,10.69
2018-01-05T09:49:01.619Z,10.69
2018-01-05T09:50:01.218Z,10.75
2018-01-05T09:51:01.352Z,10.69
2018-01-05T09:52:01.423Z,10.81
2018-01-05T09:53:01.501Z,10.81
2018-01-05T09:54:01.813Z,10.81
2018-01-05T09:55:01.436Z,10.88
2018-01-05T09:56:01.730Z,10.88
2018-01-05T09:57:00.817Z,10.88
2018-01-05T09:58:01.181Z,10.88
2018-01-05T09:59:02.285Z,10.94
2018-01-05T10:00:01.634Z,10.94
2018-01-05T10:01:01.923Z,10.94
2018-01-05T10:02:01.204Z,11
2018-01-05T10:03:01.488Z,11
2018-01-05T10:04:01.713Z,11
2018-01-05T10:05:01.856Z,11
2018-01-05T10:06:01.697Z,11.06
2018-01-05T10:07:00.958Z,11.06
2018-01-05T10:08:01.140Z,11.12
2018-01-05T10:09:01.310Z,11.12
2018-01-05T10:10:01.810Z,11.19
2018-01-05T10:11:02.302Z,11.19
2018-01-05T10:12:02.597Z,11.19
2018-01-05T10:13:01.962Z,11.19
2018-01-05T10:14:02.203Z,11.19
2018-01-05T10:15:02.423Z,11.19
2018-01-05T10:16:01.477Z,11.25
2018-01-05T10:17:01.713Z,11.25
2018-01-05T10:18:02.188Z,11.25
2018-01-05T10:19:02.431Z,11.25
2018-01-05T10:20:01.858Z,11.31
2018-01-05T10:21:01.971Z,11.31
2018-01-05T10:22:02.214Z,11.38
2018-01-05T10:23:02.484Z,11.31
2018-01-05T10:24:01.766Z,11.31
2018-01-05T10:25:05.706Z,11.38
2018-01-05T10:26:02.116Z,11.38
2018-01-05T10:27:02.802Z,11.44
2018-01-05T10:28:02.382Z,11.38
2018-01-05T10:29:01.636Z,11.44
2018-01-05T10:30:02.097Z,11.44
2018-01-05T10:31:02.591Z,11.44
2018-01-05T10:32:02.195Z,11.5
2018-01-05T10:33:02.616Z,11.44
2018-01-05T10:34:01.877Z,11.44
2018-01-05T10:35:02.088Z,11.44
2018-01-05T10:36:02.530Z,11.44
2018-01-05T10:37:02.077Z,11.44
2018-01-05T10:38:02.697Z,11.44
2018-01-05T10:39:02.127Z,11.44
2018-01-05T10:40:02.635Z,11.44
2018-01-05T10:41:02.095Z,11.44
2018-01-05T10:42:02.421Z,11.5
2018-01-05T10:43:01.700Z,11.5
2018-01-05T10:44:02.277Z,11.5
2018-01-05T10:45:01.865Z,11.5
2018-01-05T10:46:02.279Z,11.56
2018-01-05T10:47:01.522Z,11.5
2018-01-05T10:48:01.888Z,11.5
2018-01-05T10:49:02.059Z,11.56
2018-01-05T10:50:01.738Z,11.56
2018-01-05T10:51:02.152Z,11.56
2018-01-05T10:52:01.695Z,11.56
2018-01-05T10:53:02.102Z,11.56
2018-01-05T10:54:02.388Z,11.56
2018-01-05T10:55:01.949Z,11.56
2018-01-05T10:56:02.237Z,11.56
2018-01-05T10:57:01.400Z,11.56
2018-01-05T10:58:02.022Z,11.56
2018-01-05T10:59:08.027Z,11.56
2018-01-05T11:00:01.772Z,11.63
2018-01-05T11:01:02.042Z,11.69
2018-01-05T11:02:02.267Z,11.63
2018-01-05T11:03:01.652Z,11.63
2018-01-05T11:04:02.000Z,11.63
2018-01-05T11:05:02.375Z,11.69
2018-01-05T11:06:01.824Z,11.63
2018-01-05T11:07:02.223Z,11.63
2018-01-05T11:08:01.574Z,11.69
2018-01-05T11:09:01.941Z,11.63
2018-01-05T11:10:02.393Z,11.69
2018-01-05T11:11:02.125Z,11.69
2018-01-05T11:12:01.657Z,11.69
2018-01-05T11:13:00.872Z,11.63
2018-01-05T11:14:01.147Z,11.69
2018-01-05T11:15:01.518Z,11.69
2018-01-05T11:16:02.219Z,11.69
2018-01-05T11:17:01.773Z,11.69
2018-01-05T11:18:01.078Z,11.63
2018-01-05T11:19:01.334Z,11.63
2018-01-05T11:20:01.712Z,11.63
2018-01-05T11:21:00.926Z,11.56
2018-01-05T11:22:02.445Z,11.63
2018-01-05T11:23:02.219Z,11.56
2018-01-05T11:24:01.679Z,11.56
2018-01-05T11:25:04.010Z,11.56
2018-01-05T11:26:09.207Z,11.56
2018-01-05T11:27:01.333Z,11.63
2018-01-05T11:28:02.036Z,11.56
2018-01-05T11:29:01.234Z,11.63
2018-01-05T11:30:01.781Z,11.56
2018-01-05T11:31:01.360Z,11.56
2018-01-05T11:32:01.563Z,11.56
2018-01-05T11:33:01.235Z,11.56
2018-01-05T11:34:01.704Z,11.56
2018-01-05T11:35:01.118Z,11.5
2018-01-05T11:36:01.308Z,11.56
2018-01-05T11:37:01.552Z,11.5
2018-01-05T11:38:03.921Z,11.56
2018-01-05T11:39:00.996Z,11.56
2018-01-05T11:40:01.374Z,11.56
2018-01-05T11:41:01.780Z,11.56
2018-01-05T11:42:01.043Z,11.56
2018-01-05T11:43:01.517Z,11.56
2018-01-05T11:44:02.070Z,11.56
2018-01-05T11:45:01.552Z,11.56
2018-01-05T11:46:01.814Z,11.56
2018-01-05T11:47:02.098Z,11.56
2018-01-05T11:48:01.700Z,11.56
2018-01-05T11:49:02.055Z,11.56
2018-01-05T11:50:01.421Z,11.56
2018-01-05T11:51:01.912Z,11.56
2018-01-05T11:52:01.400Z,11.5
2018-01-05T11:53:02.017Z,11.56
2018-01-05T11:54:01.548Z,11.56
2018-01-05T11:55:04.780Z,11.56
2018-01-05T11:56:02.166Z,11.5
2018-01-05T11:57:01.701Z,11.5
2018-01-05T11:58:02.051Z,11.5
2018-01-05T11:59:01.498Z,11.44
2018-01-05T12:00:01.997Z,11.5
2018-01-05T12:01:01.634Z,11.44
2018-01-05T12:02:02.204Z,11.44
2018-01-05T12:03:01.376Z,11.44
2018-01-05T12:04:02.145Z,11.44
2018-01-05T12:05:01.763Z,11.44
2018-01-05T12:06:02.316Z,11.38
2018-01-05T12:07:01.859Z,11.38
2018-01-05T12:08:01.324Z,11.38
2018-01-05T12:09:01.610Z,11.38
2018-01-05T12:10:01.968Z,11.38
2018-01-05T12:11:01.390Z,11.38
2018-01-05T12:12:01.838Z,11.38
2018-01-05T12:13:01.212Z,11.31
2018-01-05T12:14:01.650Z,11.38
2018-01-05T12:15:01.542Z,11.31
2018-01-05T12:16:01.102Z,11.31
2018-01-05T12:17:01.359Z,11.31
2018-01-05T12:18:01.850Z,11.31
2018-01-05T12:19:01.222Z,11.31
2018-01-05T12:20:01.820Z,11.25
2018-01-05T12:21:01.016Z,11.25
2018-01-05T12:22:01.567Z,11.25
2018-01-05T12:23:01.062Z,11.25
2018-01-05T12:24:02.181Z,11.19
2018-01-05T12:25:02.318Z,11.19
2018-01-05T12:26:03.593Z,11.25
2018-01-05T12:27:01.157Z,11.19
2018-01-05T12:28:01.075Z,11.25
2018-01-05T12:29:01.375Z,11.19
2018-01-05T12:30:04.333Z,11.19
2018-01-05T12:31:02.591Z,11.19
2018-01-05T12:32:00.893Z,11.19
2018-01-05T12:33:03.267Z,11.25
2018-01-05T12:34:01.739Z,11.19
2018-01-05T12:35:01.080Z,11.19
2018-01-05T12:36:01.383Z,11.12
2018-01-05T12:37:01.672Z,11.19
2018-01-05T12:38:01.153Z,11.19
2018-01-05T12:39:01.478Z,11.12
2018-01-05T12:40:01.058Z,11.12
2018-01-05T12:41:01.645Z,11.12
2018-01-05T12:42:00.991Z,11.12
2018-01-05T12:43:01.506Z,11.12
2018-01-05T12:44:02.260Z,11.12
2018-01-05T12:45:02.162Z,11.19
2018-01-05T12:46:01.440Z,11.12
2018-01-05T12:47:01.711Z,11.12
2018-01-05T12:48:02.210Z,11.12
2018-01-05T12:49:01.585Z,11.12
2018-01-05T12:50:01.757Z,11.12
2018-01-05T12:51:02.006Z,11.12
2018-01-05T12:52:03.196Z,11.12
2018-01-05T12:53:01.461Z,11.12
2018-01-05T12:54:01.905Z,11.12
2018-01-05T12:55:02.449Z,11.12
2018-01-05T12:56:01.686Z,11.12
2018-01-05T12:57:01.856Z,11.12
2018-01-05T12:58:02.172Z,11.12
2018-01-05T12:59:01.657Z,11.12
2018-01-05T13:00:02.280Z,11.12
2018-01-05T13:01:01.660Z,11.12
2018-01-05T13:02:02.046Z,11.12
2018-01-05T13:03:01.527Z,11.12
2018-01-05T13:04:01.885Z,11.06
2018-01-05T13:05:02.328Z,11.06
2018-01-05T13:06:01.603Z,11.06
2018-01-05T13:07:01.824Z,11
2018-01-05T13:08:02.187Z,11.06
2018-01-05T13:09:01.647Z,11
2018-01-05T13:10:02.866Z,11
2018-01-05T13:11:01.244Z,11
2018-01-05T13:12:01.515Z,10.94
2018-01-05T13:13:01.779Z,10.94
2018-01-05T13:14:01.123Z,10.94
2018-01-05T13:15:01.501Z,10.94
2018-01-05T13:16:01.800Z,10.88
2018-01-05T13:17:01.179Z,10.88
2018-01-05T13:18:01.577Z,10.88
2018-01-05T13:19:01.036Z,10.88
2018-01-05T13:20:01.394Z,10.88
2018-01-05T13:21:01.779Z,10.81
2018-01-05T13:22:01.420Z,10.81
2018-01-05T13:23:01.763Z,10.81